Time;durP1;ratioP1;P1;durP2;ratioP2;P2;SDS_P1;SDS_P2;PMS_P1;PMS_P2;Temp;Humidity;BMP_temperature;BMP_pressure;BME280_temperature;BME280_humidity;BME280_pressure;Samples;Min_cycle;Max_cycle;Signal;HPM_P1;HPM_P2
2023/09/21 08:27:18;;;;;;;4.10;2.50;;;;;;;20.57;73.03;98638.64;106427;1302;545052;-48
2023/09/21 08:29:43;;;;;;;8.90;2.70;;;;;;;20.66;71.67;98638.80;106690;1295;22570;-49
2023/09/21 08:32:09;;;;;;;6.40;2.80;;;;;;;20.74;71.50;98636.14;106741;1295;23276;-49
2023/09/21 08:34:35;;;;;;;6.10;2.30;;;;;;;20.82;70.41;98632.77;106634;1311;22567;-44
2023/09/21 08:37:00;;;;;;;6.10;2.30;;;;;;;20.92;70.41;98634.17;106677;1295;25346;-45
2023/09/21 08:39:25;;;;;;;7.80;2.60;;;;;;;21.02;71.12;98633.77;106664;1311;22585;-48
2023/09/21 08:41:51;;;;;;;10.60;3.30;;;;;;;21.12;70.73;98629.69;106729;1308;177002;-44
2023/09/21 08:44:18;;;;;;;9.90;2.60;;;;;;;21.20;70.86;98630.59;106918;1291;23033;-46
2023/09/21 08:46:54;;;;;;;5.50;2.70;;;;;;;21.31;70.85;98627.42;106975;1308;22932;-45
2023/09/21 08:49:22;;;;;;;9.70;2.40;;;;;;;21.42;69.50;98632.82;107067;1307;22560;-46
2023/09/21 08:51:47;;;;;;;7.20;5.10;;;;;;;21.51;69.64;98636.91;107051;1289;23002;-45
2023/09/21 08:54:15;;;;;;;7.90;2.50;;;;;;;21.60;69.20;98634.95;107066;1298;22646;-45
2023/09/21 08:56:42;;;;;;;5.50;2.40;;;;;;;21.71;67.82;98631.16;107098;1289;22597;-47
2023/09/21 08:59:08;;;;;;;8.10;2.10;;;;;;;21.85;66.54;98635.23;107067;1301;21763;-46
2023/09/21 09:01:34;;;;;;;6.90;3.00;;;;;;;21.96;65.55;98630.00;107048;1285;22566;-49
2023/09/21 09:03:59;;;;;;;3.40;2.00;;;;;;;22.06;65.28;98630.11;106777;1308;22563;-46
2023/09/21 09:06:29;;;;;;;5.60;1.90;;;;;;;22.15;64.72;98625.22;106933;1299;22554;-47
2023/09/21 09:08:54;;;;;;;7.60;2.20;;;;;;;22.26;64.57;98621.67;106945;1289;22570;-45
2023/09/21 09:11:40;;;;;;;17.20;3.00;;;;;;;22.35;65.04;98622.39;106933;1289;22569;-47
2023/09/21 09:14:25;;;;;;;7.70;2.20;;;;;;;22.46;65.15;98622.79;107677;1286;22577;-49
2023/09/21 09:16:51;;;;;;;7.70;1.90;;;;;;;22.61;63.89;98618.86;106919;1297;22555;-49
2023/09/21 09:19:16;;;;;;;10.30;2.30;;;;;;;22.86;63.82;98622.70;106930;1308;22566;-44
2023/09/21 09:21:44;;;;;;;3.00;2.20;;;;;;;23.10;62.51;98623.69;106962;1292;22553;-45
2023/09/21 09:24:11;;;;;;;6.90;2.30;;;;;;;23.19;62.25;98619.05;107004;1308;22566;-49
2023/09/21 09:26:38;;;;;;;5.00;2.80;;;;;;;23.21;61.45;98617.27;106918;1293;22649;-45
2023/09/21 09:29:05;;;;;;;6.50;2.30;;;;;;;23.23;59.26;98616.32;107188;1302;22567;-45
2023/09/21 09:31:31;;;;;;;4.60;2.30;;;;;;;23.27;60.22;98612.25;107226;1302;22577;-45
2023/09/21 09:33:57;;;;;;;7.10;2.50;;;;;;;23.26;59.79;98612.23;107019;1286;22235;-49
2023/09/21 09:36:24;;;;;;;7.10;2.20;;;;;;;23.23;59.78;98610.08;107058;1306;22569;-50
2023/09/21 09:38:50;;;;;;;7.60;2.50;;;;;;;23.22;59.29;98609.20;108063;1298;22352;-47
2023/09/21 09:41:16;;;;;;;12.80;2.70;;;;;;;23.22;59.01;98602.43;107208;1289;24231;-55
2023/09/21 09:43:44;;;;;;;7.10;1.90;;;;;;;23.23;59.63;98600.14;107233;1306;22552;-43
2023/09/21 09:46:11;;;;;;;5.20;2.00;;;;;;;23.22;59.25;98600.98;107072;1307;22553;-46
2023/09/21 09:48:39;;;;;;;7.10;1.80;;;;;;;23.22;57.82;98593.76;107082;1299;22552;-51
2023/09/21 09:51:10;;;;;;;5.30;2.00;;;;;;;23.24;58.59;98592.52;107152;1292;22559;-46
2023/09/21 09:53:38;;;;;;;10.40;2.60;;;;;;;23.23;59.04;98593.20;107204;1296;22561;-52
2023/09/21 09:56:10;;;;;;;4.80;2.30;;;;;;;23.24;58.26;98590.38;107118;1302;22859;-46
2023/09/21 09:58:42;;;;;;;4.00;2.10;;;;;;;23.27;57.63;98591.29;107122;1299;25508;-50
2023/09/21 10:01:12;;;;;;;14.80;2.00;;;;;;;23.30;57.30;98588.58;107081;1303;22557;-48
2023/09/21 10:03:39;;;;;;;3.40;2.00;;;;;;;23.34;57.02;98587.35;107207;1288;22923;-48
2023/09/21 10:06:09;;;;;;;9.70;2.30;;;;;;;23.37;56.49;98588.70;107154;1306;22571;-50
2023/09/21 10:08:39;;;;;;;4.10;1.70;;;;;;;23.38;56.76;98589.45;107090;1305;22587;-46
2023/09/21 10:11:09;;;;;;;10.50;6.00;;;;;;;23.38;57.41;98586.95;107193;1289;22556;-47
2023/09/21 10:13:35;;;;;;;6.10;3.10;;;;;;;23.39;57.54;98584.36;107111;1288;22560;-43
2023/09/21 10:16:05;;;;;;;3.40;2.50;;;;;;;23.45;56.75;98586.74;107178;1289;22597;-45
2023/09/21 10:18:35;;;;;;;4.20;1.70;;;;;;;23.51;57.53;98584.52;107212;1304;22582;-48
2023/09/21 10:21:23;;;;;;;8.30;2.00;;;;;;;23.57;56.08;98579.85;107173;1289;22601;-44
2023/09/21 10:24:12;;;;;;;3.00;1.70;;;;;;;23.60;56.82;98571.59;107199;1288;22628;-42
2023/09/21 10:26:43;;;;;;;5.90;1.90;;;;;;;23.62;57.04;98565.84;107092;1289;22560;-51
2023/09/21 10:29:12;;;;;;;4.20;2.00;;;;;;;23.65;56.86;98567.72;107161;1299;22564;-47
2023/09/21 10:31:39;;;;;;;6.20;1.80;;;;;;;23.76;54.69;98566.33;107226;1286;22596;-49
2023/09/21 10:34:09;;;;;;;3.50;1.90;;;;;;;23.84;54.32;98564.25;107105;1295;22575;-44
2023/09/21 10:36:43;;;;;;;4.60;1.90;;;;;;;23.95;54.55;98563.44;107101;1289;22605;-46
2023/09/21 10:39:12;;;;;;;4.00;1.90;;;;;;;24.26;53.84;98560.38;107161;1289;22548;-49
2023/09/21 10:41:43;;;;;;;3.70;1.80;;;;;;;24.85;51.99;98559.79;107147;1286;22565;-50
2023/09/21 10:44:32;;;;;;;5.60;2.10;;;;;;;25.19;48.56;98556.20;107179;1289;22588;-49
2023/09/21 10:46:57;;;;;;;3.40;1.50;;;;;;;25.28;50.11;98551.89;107138;1305;22583;-51
2023/09/21 10:49:24;;;;;;;7.10;1.80;;;;;;;25.35;51.12;98551.02;107082;1286;22570;-47
2023/09/21 10:51:51;;;;;;;4.70;1.50;;;;;;;25.58;50.08;98550.98;107158;1295;23665;-47
2023/09/21 10:54:17;;;;;;;3.00;1.50;;;;;;;26.62;48.36;98550.73;107087;1292;22564;-49
2023/09/21 10:56:43;;;;;;;8.40;1.70;;;;;;;27.89;46.25;98553.50;107147;1289;22626;-47
2023/09/21 10:59:08;;;;;;;10.90;1.60;;;;;;;29.00;42.23;98550.58;107200;1289;22548;-43
2023/09/21 11:01:35;;;;;;;6.50;1.80;;;;;;;30.10;41.43;98551.48;107159;1299;22579;-46
2023/09/21 11:04:02;;;;;;;3.80;1.30;;;;;;;31.19;37.43;98552.80;107174;1289;22563;-43
2023/09/21 11:06:28;;;;;;;7.40;1.90;;;;;;;32.19;33.24;98549.23;107113;1286;22552;-45
2023/09/21 11:08:55;;;;;;;2.60;1.50;;;;;;;33.13;31.86;98544.55;107262;1307;24241;-48
2023/09/21 11:11:21;;;;;;;3.70;1.10;;;;;;;34.06;30.90;98542.00;107136;1305;22571;-48
2023/09/21 11:13:54;;;;;;;3.50;1.70;;;;;;;34.94;29.28;98539.35;107126;1282;22687;-51
2023/09/21 11:16:21;;;;;;;2.00;1.00;;;;;;;35.60;27.02;98537.92;107215;1306;22610;-51
2023/09/21 11:18:48;;;;;;;3.60;1.20;;;;;;;36.17;27.29;98538.14;107167;1286;22556;-47
2023/09/21 11:21:16;;;;;;;8.00;1.40;;;;;;;36.67;24.81;98534.52;107190;1306;22991;-48
2023/09/21 11:23:42;;;;;;;3.30;1.50;;;;;;;37.27;23.93;98531.98;107200;1306;22552;-43
2023/09/21 11:26:14;;;;;;;4.10;1.50;;;;;;;37.95;23.98;98530.20;107141;1290;22576;-43
2023/09/21 11:28:39;;;;;;;3.20;1.10;;;;;;;38.61;22.65;98531.27;107173;1305;22611;-46
2023/09/21 11:31:05;;;;;;;9.10;1.60;;;;;;;39.35;22.37;98524.36;107159;1285;22583;-49
2023/09/21 11:33:36;;;;;;;6.10;1.40;;;;;;;39.84;21.39;98524.83;107142;1299;22551;-50
2023/09/21 11:36:04;;;;;;;3.30;1.00;;;;;;;40.29;20.63;98523.60;107207;1305;24402;-50
2023/09/21 11:38:33;;;;;;;1.80;1.10;;;;;;;40.46;19.81;98521.25;107252;1305;23023;-46
2023/09/21 11:40:59;;;;;;;1.80;1.10;;;;;;;40.81;19.55;98517.80;107123;1299;22582;-49
2023/09/21 11:43:25;;;;;;;2.30;1.00;;;;;;;41.19;19.20;98514.09;107136;1289;25422;-45
2023/09/21 11:45:52;;;;;;;4.40;1.00;;;;;;;41.48;18.73;98512.42;107123;1295;22569;-50
2023/09/21 11:48:21;;;;;;;2.30;1.20;;;;;;;41.78;18.35;98507.98;107163;1306;22575;-44
2023/09/21 11:50:48;;;;;;;4.70;1.30;;;;;;;41.73;17.85;98504.44;107139;1287;22559;-42
2023/09/21 11:53:14;;;;;;;1.90;0.90;;;;;;;42.21;17.33;98501.39;107130;1307;22584;-50
2023/09/21 11:55:43;;;;;;;4.70;1.10;;;;;;;42.68;17.76;98499.65;107067;1307;22610;-48
2023/09/21 11:58:11;;;;;;;5.60;1.40;;;;;;;43.00;16.98;98498.27;107147;1289;22566;-48
2023/09/21 12:01:19;;;;;;;5.50;1.80;;;;;;;43.37;16.67;98491.52;107104;1289;22541;-50
2023/09/21 12:03:33;;;;;;;2.00;0.80;;;;;;;43.49;16.41;98487.77;107115;1305;22576;-51
2023/09/21 12:05:59;;;;;;;4.40;1.00;;;;;;;43.18;15.57;98485.94;107176;1289;22583;-52
2023/09/21 12:08:25;;;;;;;12.50;2.10;;;;;;;43.29;15.75;98481.67;107152;1289;22561;-46
2023/09/21 12:10:51;;;;;;;1.40;1.20;;;;;;;43.65;16.41;98477.46;107142;1289;22573;-47
2023/09/21 12:13:17;;;;;;;3.90;0.90;;;;;;;43.91;15.44;98473.06;107163;1289;23332;-57
2023/09/21 12:15:43;;;;;;;6.50;1.00;;;;;;;43.60;14.63;98472.79;107134;1287;22578;-44
2023/09/21 12:18:12;;;;;;;5.40;1.20;;;;;;;43.61;14.97;98472.17;107148;1306;24349;-47
2023/09/21 12:20:42;;;;;;;5.60;1.40;;;;;;;43.91;15.74;98466.70;107236;1297;24244;-45
2023/09/21 12:23:08;;;;;;;2.10;1.30;;;;;;;44.18;15.49;98463.52;107120;1289;22563;-42
2023/09/21 12:25:34;;;;;;;1.40;1.30;;;;;;;44.41;14.95;98458.73;107223;1299;22575;-49
2023/09/21 12:28:00;;;;;;;5.10;1.10;;;;;;;44.54;14.79;98449.48;107072;1306;22568;-51
2023/09/21 12:30:25;;;;;;;;;;;;;;;44.68;15.19;98445.18;107135;1298;22646;-50
2023/09/21 12:32:50;;;;;;;1.30;1.10;;;;;;;44.75;15.24;98447.21;107130;1289;25385;-49
2023/09/21 12:35:21;;;;;;;3.10;1.10;;;;;;;44.93;14.82;98445.30;107092;1306;22592;-51
2023/09/21 12:37:46;;;;;;;5.30;1.20;;;;;;;44.97;14.60;98443.71;107316;1289;22552;-50
2023/09/21 12:40:12;;;;;;;3.80;1.10;;;;;;;44.90;14.51;98448.48;107105;1299;23389;-47
2023/09/21 12:42:42;;;;;;;2.50;1.00;;;;;;;44.75;14.36;98446.66;107351;1306;22561;-52
2023/09/21 12:45:11;;;;;;;1.90;1.20;;;;;;;44.82;14.28;98441.84;107107;1289;22583;-45
2023/09/21 12:47:39;;;;;;;3.80;1.60;;;;;;;45.19;14.28;98443.83;107160;1306;22556;-47
2023/09/21 12:50:09;;;;;;;7.80;1.80;;;;;;;45.12;13.97;98440.54;107391;1289;22575;-47
2023/09/21 12:52:39;;;;;;;8.50;1.40;;;;;;;45.20;13.80;98436.75;107133;1289;23591;-46
2023/09/21 12:55:06;;;;;;;1.40;1.30;;;;;;;45.22;13.32;98433.02;107222;1305;22566;-47
2023/09/21 12:57:36;;;;;;;2.40;1.20;;;;;;;45.51;13.55;98435.26;107176;1306;23345;-46
2023/09/21 13:00:19;;;;;;;2.50;1.20;;;;;;;45.44;13.42;98433.88;107142;1296;24386;-46
2023/09/21 13:02:45;;;;;;;2.30;1.20;;;;;;;45.71;12.96;98433.34;107066;1305;22571;-47
2023/09/21 13:05:12;;;;;;;1.40;1.30;;;;;;;45.93;13.19;98427.34;107250;1286;22536;-45
2023/09/21 13:07:41;;;;;;;3.90;1.40;;;;;;;45.91;12.78;98425.21;107239;1288;22558;-46
2023/09/21 13:10:07;;;;;;;4.10;1.30;;;;;;;45.63;12.60;98423.98;107178;1286;23409;-46
2023/09/21 13:12:35;;;;;;;3.10;1.20;;;;;;;45.75;13.02;98423.98;107205;1288;22552;-48
2023/09/21 13:15:01;;;;;;;8.00;1.60;;;;;;;45.74;12.68;98419.98;107271;1302;22573;-46
2023/09/21 13:17:27;;;;;;;1.90;1.10;;;;;;;45.50;12.77;98416.75;107184;1306;22647;-51
2023/09/21 13:19:53;;;;;;;2.20;1.10;;;;;;;45.46;12.58;98421.03;107240;1305;22584;-45
2023/09/21 13:22:18;;;;;;;3.30;1.40;;;;;;;45.39;12.64;98416.95;107169;1302;22573;-48
2023/09/21 13:24:44;;;;;;;2.10;0.90;;;;;;;44.89;12.50;98412.56;107208;1289;24138;-43
2023/09/21 13:27:11;;;;;;;3.10;1.00;;;;;;;44.82;13.27;98410.13;107250;1305;22550;-42
2023/09/21 13:29:36;;;;;;;3.80;1.00;;;;;;;44.64;13.30;98402.56;107197;1306;22561;-48
2023/09/21 13:32:02;;;;;;;3.00;1.10;;;;;;;44.35;13.77;98395.63;107107;1289;22609;-49
2023/09/21 13:34:28;;;;;;;2.10;1.10;;;;;;;43.88;14.54;98393.23;107242;1305;25382;-52
2023/09/21 13:36:54;;;;;;;2.80;1.60;;;;;;;43.05;14.62;98384.22;107247;1288;22754;-49
2023/09/21 13:39:19;;;;;;;1.30;1.20;;;;;;;42.84;15.47;98385.23;107263;1293;22555;-46
2023/09/21 13:41:49;;;;;;;;;;;;;;;42.48;15.55;98382.41;107225;1300;22728;-44
2023/09/21 13:44:15;;;;;;;0.80;0.70;;;;;;;41.31;15.74;98375.48;107172;1306;22556;-52
2023/09/21 13:46:40;;;;;;;4.20;1.00;;;;;;;40.20;16.65;98371.33;107213;1305;22550;-48
2023/09/21 13:49:06;;;;;;;6.10;1.00;;;;;;;39.15;18.60;98368.94;107240;1305;22574;-45
2023/09/21 13:51:33;;;;;;;7.40;1.20;;;;;;;38.22;19.42;98363.98;107177;1307;22718;-51
2023/09/21 13:53:58;;;;;;;5.80;1.60;;;;;;;37.28;20.32;98364.70;107206;1305;22569;-51
2023/09/21 13:56:24;;;;;;;3.70;1.10;;;;;;;36.42;21.02;98358.10;107183;1288;22590;-51
2023/09/21 13:58:49;;;;;;;4.50;1.00;;;;;;;35.55;21.82;98355.95;107208;1293;22561;-46
2023/09/21 14:01:15;;;;;;;4.70;1.10;;;;;;;34.87;22.68;98355.00;107249;1305;22711;-45
2023/09/21 14:03:41;;;;;;;5.30;1.20;;;;;;;34.30;23.56;98352.80;107167;1295;22553;-45
2023/09/21 14:06:07;;;;;;;1.30;0.90;;;;;;;33.83;24.29;98351.32;107239;1289;22549;-47
2023/09/21 14:08:32;;;;;;;1.50;0.80;;;;;;;33.34;24.84;98350.34;107137;1295;23080;-44
2023/09/21 14:10:58;;;;;;;3.20;1.10;;;;;;;32.94;25.48;98347.06;107260;1306;23254;-48
2023/09/21 14:13:23;;;;;;;4.00;1.10;;;;;;;32.54;26.56;98343.32;107178;1305;22556;-48
2023/09/21 14:15:48;;;;;;;5.20;1.40;;;;;;;32.21;26.94;98339.84;107173;1306;22576;-51
2023/09/21 14:18:14;;;;;;;3.20;1.10;;;;;;;31.88;27.47;98333.73;107290;1288;22659;-43
2023/09/21 14:20:40;;;;;;;4.90;1.40;;;;;;;31.48;28.04;98334.06;107154;1305;22555;-47
2023/09/21 14:23:05;;;;;;;6.70;1.20;;;;;;;31.18;28.79;98337.59;107319;1306;22563;-44
2023/09/21 14:25:30;;;;;;;4.50;1.40;;;;;;;30.87;29.29;98334.02;107092;1307;22585;-50
2023/09/21 14:27:56;;;;;;;4.90;1.40;;;;;;;30.61;29.37;98326.52;107191;1289;22571;-41
2023/09/21 14:30:21;;;;;;;2.00;1.20;;;;;;;30.41;29.98;98327.58;107143;1295;22567;-50
2023/09/21 14:32:46;;;;;;;7.80;1.30;;;;;;;30.19;30.42;98325.41;107264;1295;22566;-44
2023/09/21 14:35:14;;;;;;;4.60;1.60;;;;;;;29.96;30.52;98323.77;107180;1289;22550;-44
2023/09/21 14:37:39;;;;;;;3.60;1.30;;;;;;;29.70;31.12;98318.60;107251;1306;22664;-42
2023/09/21 14:40:06;;;;;;;3.80;1.40;;;;;;;29.56;30.65;98321.83;107205;1306;22552;-44
2023/09/21 14:42:32;;;;;;;2.70;1.90;;;;;;;29.39;31.79;98317.09;107149;1298;24228;-47
2023/09/21 14:44:57;;;;;;;2.70;1.30;;;;;;;29.28;32.44;98314.42;107320;1298;24275;-44
2023/09/21 14:47:22;;;;;;;2.70;1.50;;;;;;;29.20;32.34;98315.17;107156;1286;22654;-46
2023/09/21 14:49:48;;;;;;;6.40;1.70;;;;;;;29.09;32.45;98313.20;107190;1302;22644;-46
2023/09/21 14:52:14;;;;;;;3.10;1.30;;;;;;;28.98;32.54;98311.05;107181;1293;22571;-43
2023/09/21 14:54:42;;;;;;;5.00;1.40;;;;;;;28.82;33.37;98313.34;107197;1296;22594;-43
2023/09/21 14:57:08;;;;;;;1.70;1.30;;;;;;;28.65;34.25;98308.20;107219;1306;22558;-49
2023/09/21 14:59:33;;;;;;;4.00;1.70;;;;;;;28.48;35.11;98303.30;107168;1298;22620;-45
2023/09/21 15:01:59;;;;;;;8.60;1.70;;;;;;;28.36;35.03;98303.38;107338;1289;22567;-49
2023/09/21 15:04:25;;;;;;;5.40;1.70;;;;;;;28.25;35.60;98302.66;107098;1305;22552;-43
2023/09/21 15:06:51;;;;;;;3.20;1.30;;;;;;;28.14;36.05;98305.30;107310;1297;22553;-42
2023/09/21 15:09:16;;;;;;;3.80;1.70;;;;;;;28.01;36.51;98301.10;107139;1304;22562;-41
2023/09/21 15:11:41;;;;;;;2.10;1.50;;;;;;;27.89;36.79;98299.40;107156;1297;22563;-42
2023/09/21 15:14:06;;;;;;;4.60;1.80;;;;;;;27.77;37.63;98297.66;107115;1298;22570;-47
2023/09/21 15:16:32;;;;;;;4.50;1.90;;;;;;;27.62;38.10;98291.17;107290;1301;26583;-42
2023/09/21 15:18:57;;;;;;;2.50;2.10;;;;;;;27.53;38.25;98288.41;107190;1293;22589;-43
2023/09/21 15:21:23;;;;;;;4.10;1.70;;;;;;;27.45;39.25;98293.52;107128;1293;22611;-44
2023/09/21 15:23:48;;;;;;;2.90;1.70;;;;;;;27.38;39.68;98292.16;107184;1305;22569;-42
2023/09/21 15:26:14;;;;;;;8.30;2.90;;;;;;;27.33;39.34;98290.91;107124;1292;22620;-42
2023/09/21 15:28:39;;;;;;;4.30;2.10;;;;;;;27.21;40.20;98292.29;107186;1295;22575;-44
2023/09/21 15:31:04;;;;;;;4.60;1.90;;;;;;;27.13;40.34;98293.20;107210;1306;22762;-43
2023/09/21 15:33:31;;;;;;;8.40;2.20;;;;;;;27.01;40.88;98288.35;107156;1286;22554;-42
2023/09/21 15:35:57;;;;;;;;;;;;;;;26.90;40.83;98287.86;107164;1305;22554;-46
2023/09/21 15:38:22;;;;;;;4.50;2.40;;;;;;;26.82;41.23;98291.27;107235;1306;22619;-45
2023/09/21 15:40:47;;;;;;;6.00;2.10;;;;;;;26.71;40.81;98293.39;107067;1292;22562;-49
2023/09/21 15:43:13;;;;;;;7.90;2.20;;;;;;;26.61;41.76;98288.15;107275;1305;24790;-43
2023/09/21 15:45:38;;;;;;;5.60;2.00;;;;;;;26.52;41.71;98288.20;107121;1298;22570;-47
2023/09/21 15:48:04;;;;;;;7.80;2.20;;;;;;;26.40;41.56;98285.75;107284;1297;22566;-49
2023/09/21 15:50:31;;;;;;;8.70;1.70;;;;;;;26.33;41.96;98286.35;107133;1298;23037;-43
2023/09/21 15:52:57;;;;;;;10.40;2.20;;;;;;;26.26;41.82;98282.95;107358;1299;22590;-45
2023/09/21 15:55:22;;;;;;;6.60;2.20;;;;;;;26.17;42.65;98281.86;107210;1283;23892;-46
2023/09/21 15:57:48;;;;;;;15.20;2.10;;;;;;;26.07;43.19;98279.88;107060;1305;22599;-43
2023/09/21 16:00:13;;;;;;;7.60;2.00;;;;;;;25.97;42.76;98276.95;107178;1306;22552;-46
2023/09/21 16:02:39;;;;;;;6.40;1.70;;;;;;;25.89;43.40;98277.44;107159;1307;22578;-42
2023/09/21 16:05:05;;;;;;;7.20;2.20;;;;;;;25.80;43.84;98277.68;107178;1305;22560;-46
2023/09/21 16:07:31;;;;;;;5.70;1.90;;;;;;;25.70;43.83;98274.77;107188;1307;24258;-41
2023/09/21 16:09:56;;;;;;;4.20;1.90;;;;;;;25.62;44.45;98278.22;107191;1298;22659;-41
2023/09/21 16:12:22;;;;;;;5.90;1.80;;;;;;;25.52;44.56;98279.41;106997;1306;22563;-44
2023/09/21 16:14:49;;;;;;;6.30;2.10;;;;;;;25.44;44.55;98281.89;107157;1306;22543;-43
2023/09/21 16:17:15;;;;;;;5.60;1.80;;;;;;;25.32;45.66;98279.75;107186;1305;22572;-43
2023/09/21 16:19:40;;;;;;;6.50;2.10;;;;;;;25.19;45.70;98282.73;107092;1307;22647;-45
2023/09/21 16:22:06;;;;;;;11.90;2.40;;;;;;;25.07;45.93;98277.94;107220;1305;22559;-43
2023/09/21 16:24:31;;;;;;;9.30;2.30;;;;;;;24.99;45.77;98272.54;107162;1294;22590;-47
2023/09/21 16:26:58;;;;;;;6.30;2.40;;;;;;;24.91;46.16;98272.14;107283;1302;22584;-40
2023/09/21 16:29:24;;;;;;;8.70;2.50;;;;;;;24.84;47.17;98273.16;107137;1306;22552;-39
2023/09/21 16:31:50;;;;;;;5.60;2.10;;;;;;;24.75;47.44;98273.73;107260;1299;22570;-44
2023/09/21 16:34:17;;;;;;;2.80;1.80;;;;;;;24.66;47.34;98269.69;107131;1288;24267;-41
2023/09/21 16:36:43;;;;;;;4.50;1.90;;;;;;;24.57;47.20;98269.84;107140;1306;22632;-45
2023/09/21 16:39:08;;;;;;;2.70;1.90;;;;;;;24.49;47.08;98270.45;107197;1283;22598;-40
2023/09/21 16:41:35;;;;;;;6.40;2.00;;;;;;;24.42;47.24;98269.70;107104;1289;22679;-47
2023/09/21 16:44:00;;;;;;;7.70;3.10;;;;;;;24.35;47.42;98267.36;107170;1306;22596;-44
2023/09/21 16:46:25;;;;;;;7.70;2.20;;;;;;;24.28;47.71;98266.88;107160;1306;22574;-41
2023/09/21 16:48:51;;;;;;;10.10;3.30;;;;;;;24.21;48.10;98266.24;107398;1306;22583;-42
2023/09/21 16:51:17;;;;;;;12.30;2.60;;;;;;;24.14;47.79;98266.45;107047;1289;22545;-42
2023/09/21 16:53:42;;;;;;;6.30;2.20;;;;;;;24.10;48.44;98265.07;107117;1292;22559;-42
2023/09/21 16:56:08;;;;;;;9.00;2.10;;;;;;;24.02;47.81;98262.83;107310;1299;25752;-42
2023/09/21 16:58:33;;;;;;;8.60;2.10;;;;;;;23.95;49.39;98264.97;107057;1305;24991;-41
2023/09/21 17:00:59;;;;;;;4.20;2.30;;;;;;;23.88;49.14;98260.01;107305;1286;22555;-48
2023/09/21 17:03:24;;;;;;;7.10;1.90;;;;;;;23.80;49.43;98261.91;107145;1289;22563;-40
2023/09/21 17:05:50;;;;;;;8.10;2.90;;;;;;;23.72;49.49;98260.92;107212;1306;22559;-46
2023/09/21 17:08:15;;;;;;;9.10;2.60;;;;;;;23.67;49.85;98260.09;107173;1290;22562;-44
2023/09/21 17:10:41;;;;;;;9.40;2.20;;;;;;;23.61;49.56;98260.92;107183;1289;22564;-48
2023/09/21 17:13:07;;;;;;;8.20;2.60;;;;;;;23.54;50.95;98262.77;107134;1304;24247;-41
2023/09/21 17:15:34;;;;;;;3.50;2.20;;;;;;;23.51;50.46;98262.89;107101;1305;22583;-39
2023/09/21 17:18:01;;;;;;;10.80;5.10;;;;;;;23.46;51.10;98266.16;107225;1295;24268;-46
2023/09/21 17:20:27;;;;;;;5.90;3.00;;;;;;;23.40;50.90;98265.52;107031;1305;22555;-44
2023/09/21 17:22:52;;;;;;;5.30;2.30;;;;;;;23.35;51.51;98264.11;107198;1286;22588;-48
2023/09/21 17:25:18;;;;;;;8.00;2.00;;;;;;;23.30;51.19;98264.06;107132;1283;22707;-48
2023/09/21 17:27:43;;;;;;;3.80;1.90;;;;;;;23.24;52.36;98263.42;107151;1286;24249;-44
2023/09/21 17:30:10;;;;;;;10.60;2.10;;;;;;;23.20;51.97;98265.29;107187;1298;24234;-50
2023/09/21 17:32:36;;;;;;;6.20;2.30;;;;;;;23.15;52.64;98265.86;107163;1299;22723;-43
2023/09/21 17:35:04;;;;;;;9.10;2.20;;;;;;;23.11;52.82;98265.83;107130;1288;22552;-44
2023/09/21 17:37:30;;;;;;;4.70;2.30;;;;;;;23.07;53.05;98260.36;107265;1289;22574;-40
2023/09/21 17:39:57;;;;;;;10.60;2.50;;;;;;;23.00;53.41;98264.35;107174;1305;25116;-41
2023/09/21 17:42:24;;;;;;;9.80;2.60;;;;;;;22.93;53.73;98265.48;107152;1283;22585;-42
2023/09/21 17:44:49;;;;;;;7.70;2.30;;;;;;;22.89;53.51;98260.89;107202;1289;22562;-40
2023/09/21 17:47:15;;;;;;;5.80;2.40;;;;;;;22.84;53.86;98262.00;107161;1289;22548;-43
2023/09/21 17:49:40;;;;;;;9.40;2.30;;;;;;;22.76;54.74;98257.64;107124;1306;22569;-40
2023/09/21 17:52:06;;;;;;;8.20;3.00;;;;;;;22.68;55.91;98254.70;107167;1305;22602;-43
2023/09/21 17:54:33;;;;;;;6.70;2.30;;;;;;;22.64;55.57;98258.34;107154;1282;22584;-44
2023/09/21 17:56:58;;;;;;;7.30;2.10;;;;;;;22.61;56.05;98254.83;107191;1282;22559;-44
2023/09/21 17:59:24;;;;;;;7.50;2.30;;;;;;;22.57;56.22;98258.02;107156;1305;22898;-46
2023/09/21 18:01:49;;;;;;;7.00;2.00;;;;;;;22.52;56.22;98258.05;107131;1289;24311;-40
2023/09/21 18:04:14;;;;;;;6.60;2.20;;;;;;;22.49;56.34;98260.44;107127;1304;22553;-43
2023/09/21 18:06:40;;;;;;;3.60;2.10;;;;;;;22.46;56.20;98258.30;107174;1289;22546;-47
2023/09/21 18:09:08;;;;;;;7.90;2.70;;;;;;;22.41;55.56;98257.54;107214;1302;22556;-43
2023/09/21 18:11:37;;;;;;;4.40;2.20;;;;;;;22.36;56.64;98256.95;107215;1289;22572;-45
2023/09/21 18:14:03;;;;;;;11.30;2.70;;;;;;;22.32;57.22;98263.12;107225;1289;22552;-48
2023/09/21 18:16:29;;;;;;;5.50;2.60;;;;;;;22.29;58.45;98259.55;107187;1306;22556;-48
2023/09/21 18:18:55;;;;;;;9.40;3.10;;;;;;;22.25;58.44;98259.69;107239;1298;22553;-47
2023/09/21 18:21:21;;;;;;;5.70;2.60;;;;;;;22.20;58.46;98255.92;107202;1286;22565;-45
2023/09/21 18:23:47;;;;;;;6.50;2.60;;;;;;;22.15;57.96;98253.33;107273;1305;22522;-46
2023/09/21 18:26:14;;;;;;;4.90;2.00;;;;;;;22.11;58.90;98251.00;107237;1286;22559;-44
2023/09/21 18:28:39;;;;;;;9.70;2.40;;;;;;;22.08;58.57;98249.42;107208;1305;22582;-47
2023/09/21 18:31:05;;;;;;;4.50;2.30;;;;;;;22.03;59.39;98249.42;107160;1305;22609;-45
2023/09/21 18:33:30;;;;;;;5.80;2.30;;;;;;;22.01;59.81;98249.37;107177;1287;22559;-44
2023/09/21 18:35:56;;;;;;;6.70;2.20;;;;;;;21.97;59.99;98245.86;107196;1305;22649;-43
2023/09/21 18:38:22;;;;;;;5.30;2.20;;;;;;;21.94;60.01;98241.23;107141;1286;22568;-48
2023/09/21 18:40:47;;;;;;;4.90;2.30;;;;;;;21.91;60.15;98243.83;107177;1295;22603;-45
2023/09/21 18:43:14;;;;;;;4.70;2.40;;;;;;;21.87;60.07;98243.66;107174;1305;22670;-45
2023/09/21 18:45:40;;;;;;;8.30;2.00;;;;;;;21.82;60.12;98244.75;107171;1305;22556;-44
2023/09/21 18:48:06;;;;;;;3.40;2.40;;;;;;;21.77;61.03;98240.83;107178;1305;22642;-48
2023/09/21 18:50:31;;;;;;;4.80;2.60;;;;;;;21.72;60.97;98242.44;107151;1305;24238;-42
2023/09/21 18:52:56;;;;;;;8.40;2.20;;;;;;;21.68;62.14;98242.58;107161;1289;22569;-46
2023/09/21 18:55:22;;;;;;;5.00;2.30;;;;;;;21.65;62.14;98242.35;107222;1288;22557;-42
2023/09/21 18:57:49;;;;;;;8.20;2.00;;;;;;;21.62;63.19;98239.98;107185;1295;24292;-46
2023/09/21 19:00:16;;;;;;;5.80;2.50;;;;;;;21.60;62.45;98240.36;107158;1289;22572;-43
2023/09/21 19:02:42;;;;;;;4.70;2.40;;;;;;;21.59;62.99;98236.67;107134;1299;22623;-50
2023/09/21 19:05:09;;;;;;;7.00;2.40;;;;;;;21.55;61.60;98237.39;107099;1302;22575;-44
2023/09/21 19:07:36;;;;;;;7.60;2.40;;;;;;;21.52;61.88;98237.46;107066;1305;22559;-49
2023/09/21 19:10:03;;;;;;;7.10;2.30;;;;;;;21.49;62.69;98233.55;107097;1283;22566;-46
2023/09/21 19:12:29;;;;;;;;;;;;;;;21.45;63.23;98235.48;107081;1306;22546;-44
2023/09/21 19:14:56;;;;;;;5.80;2.20;;;;;;;21.39;63.28;98230.92;107086;1298;22555;-46
2023/09/21 19:17:22;;;;;;;8.40;2.40;;;;;;;21.32;65.00;98227.64;107074;1307;22612;-44
2023/09/21 19:19:47;;;;;;;6.90;2.10;;;;;;;21.27;64.43;98230.85;107073;1283;22568;-43
2023/09/21 19:22:13;;;;;;;3.30;2.00;;;;;;;21.24;64.74;98232.48;107081;1307;24379;-46
2023/09/21 19:24:38;;;;;;;5.40;2.00;;;;;;;21.22;64.58;98229.30;107106;1289;22571;-48
2023/09/21 19:27:03;;;;;;;3.50;2.10;;;;;;;21.21;64.77;98229.27;107062;1307;22578;-42
2023/09/21 19:29:29;;;;;;;5.30;2.10;;;;;;;21.19;65.64;98225.58;107065;1289;22630;-47
2023/09/21 19:31:54;;;;;;;3.20;1.90;;;;;;;21.17;65.37;98226.31;107097;1307;24244;-43
2023/09/21 19:34:19;;;;;;;2.10;1.80;;;;;;;21.14;65.34;98223.36;107037;1307;22578;-43
2023/09/21 19:36:45;;;;;;;3.10;2.10;;;;;;;21.10;65.29;98224.88;107064;1306;23266;-47
2023/09/21 19:39:10;;;;;;;5.00;2.10;;;;;;;21.06;65.35;98223.98;107076;1289;22583;-47
2023/09/21 19:41:36;;;;;;;4.50;1.90;;;;;;;21.03;65.91;98227.05;107120;1307;22573;-47
2023/09/21 19:44:02;;;;;;;3.10;2.20;;;;;;;21.00;65.66;98226.35;107103;1306;24237;-44
2023/09/21 19:46:27;;;;;;;5.20;2.30;;;;;;;20.96;66.70;98219.32;107080;1289;22602;-45
2023/09/21 19:48:52;;;;;;;5.30;2.00;;;;;;;20.93;66.49;98216.30;107093;1288;22555;-41
2023/09/21 19:51:18;;;;;;;3.90;1.80;;;;;;;20.89;66.69;98217.48;107070;1307;24796;-44